sensor_id;sensor_type;location;lat;lon;timestamp;pressure;altitude;pressure_sealevel;temperature;humidity
69035;BME280;56091;55.756;37.412;2022-12-16T00:03:57;98577.81;;;-3.44;78.39
69035;BME280;56091;55.756;37.412;2022-12-16T00:08:59;98576.09;;;-3.37;78.87
69035;BME280;56091;55.756;37.412;2022-12-16T00:14:00;98569.38;;;-3.24;78.71
69035;BME280;56091;55.756;37.412;2022-12-16T00:19:01;98541.25;;;-3.32;78.20
69035;BME280;56091;55.756;37.412;2022-12-16T00:24:02;98553.72;;;-3.11;78.31
69035;BME280;56091;55.756;37.412;2022-12-16T00:29:04;98548.69;;;-3.06;77.96
69035;BME280;56091;55.756;37.412;2022-12-16T00:34:05;98529.69;;;-3.16;77.75
69035;BME280;56091;55.756;37.412;2022-12-16T00:39:06;98529.41;;;-3.06;77.86
69035;BME280;56091;55.756;37.412;2022-12-16T00:44:09;98537.50;;;-3.08;77.78
69035;BME280;56091;55.756;37.412;2022-12-16T00:49:10;98548.94;;;-3.01;77.77
69035;BME280;56091;55.756;37.412;2022-12-16T00:54:13;98534.75;;;-3.00;77.93
69035;BME280;56091;55.756;37.412;2022-12-16T00:59:14;98548.13;;;-3.01;78.09
69035;BME280;56091;55.756;37.412;2022-12-16T01:04:14;98550.84;;;-2.95;78.21
69035;BME280;56091;55.756;37.412;2022-12-16T01:09:15;98550.97;;;-3.03;78.28
69035;BME280;56091;55.756;37.412;2022-12-16T01:14:16;98547.88;;;-3.21;78.48
69035;BME280;56091;55.756;37.412;2022-12-16T01:19:19;98560.09;;;-3.20;79.12
69035;BME280;56091;55.756;37.412;2022-12-16T01:24:20;98555.44;;;-3.18;79.57
69035;BME280;56091;55.756;37.412;2022-12-16T01:29:21;98564.97;;;-3.17;79.12
69035;BME280;56091;55.756;37.412;2022-12-16T01:34:22;98570.41;;;-3.04;79.41
69035;BME280;56091;55.756;37.412;2022-12-16T01:39:23;98551.25;;;-3.12;79.56
69035;BME280;56091;55.756;37.412;2022-12-16T01:44:26;98566.25;;;-3.13;79.64
69035;BME280;56091;55.756;37.412;2022-12-16T01:54:38;98580.81;;;-3.17;80.32
69035;BME280;56091;55.756;37.412;2022-12-16T01:59:43;98574.44;;;-3.23;80.81
69035;BME280;56091;55.756;37.412;2022-12-16T02:04:45;98557.72;;;-3.30;81.55
69035;BME280;56091;55.756;37.412;2022-12-16T02:10:08;98572.19;;;-3.26;81.77
69035;BME280;56091;55.756;37.412;2022-12-16T02:15:20;98584.63;;;-3.20;81.50
69035;BME280;56091;55.756;37.412;2022-12-16T02:20:51;98588.47;;;-3.22;81.67
69035;BME280;56091;55.756;37.412;2022-12-16T02:31:45;98591.81;;;-3.28;82.03
69035;BME280;56091;55.756;37.412;2022-12-16T02:37:33;98589.28;;;-3.22;82.15
69035;BME280;56091;55.756;37.412;2022-12-16T02:42:33;98600.19;;;-3.25;82.38
69035;BME280;56091;55.756;37.412;2022-12-16T02:47:35;98581.47;;;-3.30;82.69
69035;BME280;56091;55.756;37.412;2022-12-16T02:52:36;98583.91;;;-3.14;82.49
69035;BME280;56091;55.756;37.412;2022-12-16T03:08:04;98581.53;;;-3.38;83.01
69035;BME280;56091;55.756;37.412;2022-12-16T03:13:07;98592.84;;;-3.29;83.22
69035;BME280;56091;55.756;37.412;2022-12-16T03:18:11;98602.75;;;-3.17;83.48
69035;BME280;56091;55.756;37.412;2022-12-16T03:23:17;98611.66;;;-3.18;83.42
69035;BME280;56091;55.756;37.412;2022-12-16T03:33:34;98615.38;;;-3.12;83.22
69035;BME280;56091;55.756;37.412;2022-12-16T03:38:38;98607.19;;;-3.17;83.53
69035;BME280;56091;55.756;37.412;2022-12-16T03:43:40;98638.69;;;-3.01;83.25
69035;BME280;56091;55.756;37.412;2022-12-16T03:48:46;98642.41;;;-2.95;83.20
69035;BME280;56091;55.756;37.412;2022-12-16T03:53:47;98643.41;;;-2.96;83.21
69035;BME280;56091;55.756;37.412;2022-12-16T03:58:48;98648.88;;;-2.98;83.18
69035;BME280;56091;55.756;37.412;2022-12-16T04:03:52;98618.94;;;-3.20;82.91
69035;BME280;56091;55.756;37.412;2022-12-16T04:08:52;98675.00;;;-2.88;83.12
69035;BME280;56091;55.756;37.412;2022-12-16T04:13:53;98694.00;;;-2.92;82.75
69035;BME280;56091;55.756;37.412;2022-12-16T04:19:23;98688.19;;;-3.03;82.77
69035;BME280;56091;55.756;37.412;2022-12-16T04:24:43;98720.41;;;-2.92;83.08
69035;BME280;56091;55.756;37.412;2022-12-16T04:29:44;98719.75;;;-2.95;82.96
69035;BME280;56091;55.756;37.412;2022-12-16T04:35:05;98711.66;;;-3.08;82.88
69035;BME280;56091;55.756;37.412;2022-12-16T04:40:25;98736.88;;;-2.90;82.89
69035;BME280;56091;55.756;37.412;2022-12-16T04:45:58;98738.25;;;-2.95;83.17
69035;BME280;56091;55.756;37.412;2022-12-16T04:51:19;98750.06;;;-2.90;82.76
69035;BME280;56091;55.756;37.412;2022-12-16T04:56:38;98769.38;;;-2.90;82.39
69035;BME280;56091;55.756;37.412;2022-12-16T05:01:58;98722.63;;;-3.34;82.11
69035;BME280;56091;55.756;37.412;2022-12-16T05:07:17;98787.28;;;-3.00;82.05
69035;BME280;56091;55.756;37.412;2022-12-16T05:12:36;98806.59;;;-3.00;82.02
69035;BME280;56091;55.756;37.412;2022-12-16T05:17:56;98801.59;;;-2.95;82.32
69035;BME280;56091;55.756;37.412;2022-12-16T05:23:15;98804.78;;;-2.99;81.96
69035;BME280;56091;55.756;37.412;2022-12-16T05:28:35;98825.97;;;-2.92;81.95
69035;BME280;56091;55.756;37.412;2022-12-16T05:33:54;98831.03;;;-3.06;82.11
69035;BME280;56091;55.756;37.412;2022-12-16T05:39:14;98834.06;;;-3.09;82.37
69035;BME280;56091;55.756;37.412;2022-12-16T05:44:33;98856.75;;;-3.00;82.55
69035;BME280;56091;55.756;37.412;2022-12-16T05:49:53;98878.06;;;-3.09;82.46
69035;BME280;56091;55.756;37.412;2022-12-16T05:55:16;98836.25;;;-3.36;82.59
69035;BME280;56091;55.756;37.412;2022-12-16T06:00:35;98907.88;;;-3.01;82.16
69035;BME280;56091;55.756;37.412;2022-12-16T06:05:57;98901.72;;;-3.16;81.29
69035;BME280;56091;55.756;37.412;2022-12-16T06:11:17;98907.34;;;-3.19;80.23
69035;BME280;56091;55.756;37.412;2022-12-16T06:16:36;98950.19;;;-3.09;78.78
69035;BME280;56091;55.756;37.412;2022-12-16T06:21:56;98943.38;;;-3.35;77.19
69035;BME280;56091;55.756;37.412;2022-12-16T06:27:15;98955.53;;;-3.25;77.11
69035;BME280;56091;55.756;37.412;2022-12-16T06:32:34;98980.69;;;-3.38;76.35
69035;BME280;56091;55.756;37.412;2022-12-16T06:37:54;98986.28;;;-3.41;76.87
69035;BME280;56091;55.756;37.412;2022-12-16T06:43:13;99006.69;;;-3.35;75.97
69035;BME280;56091;55.756;37.412;2022-12-16T06:48:33;99006.75;;;-3.51;75.92
69035;BME280;56091;55.756;37.412;2022-12-16T06:53:52;99023.91;;;-3.47;75.44
69035;BME280;56091;55.756;37.412;2022-12-16T06:59:12;99051.41;;;-3.49;74.83
69035;BME280;56091;55.756;37.412;2022-12-16T07:04:31;99064.78;;;-3.51;74.31
69035;BME280;56091;55.756;37.412;2022-12-16T07:09:54;99079.66;;;-3.58;74.74
69035;BME280;56091;55.756;37.412;2022-12-16T07:15:13;99082.94;;;-3.56;74.59
69035;BME280;56091;55.756;37.412;2022-12-16T07:20:33;99102.53;;;-3.50;73.72
69035;BME280;56091;55.756;37.412;2022-12-16T07:25:52;99127.44;;;-3.61;74.19
69035;BME280;56091;55.756;37.412;2022-12-16T07:31:18;99107.38;;;-3.87;74.25
69035;BME280;56091;55.756;37.412;2022-12-16T07:36:38;99149.03;;;-3.74;74.48
69035;BME280;56091;55.756;37.412;2022-12-16T07:41:57;99158.25;;;-3.62;74.71
69035;BME280;56091;55.756;37.412;2022-12-16T07:47:16;99153.34;;;-3.73;72.70
69035;BME280;56091;55.756;37.412;2022-12-16T07:52:36;99177.41;;;-3.68;72.65
69035;BME280;56091;55.756;37.412;2022-12-16T07:57:55;99210.19;;;-3.87;71.82
69035;BME280;56091;55.756;37.412;2022-12-16T08:03:15;99209.81;;;-3.76;71.74
69035;BME280;56091;55.756;37.412;2022-12-16T08:08:34;99219.59;;;-3.68;70.41
69035;BME280;56091;55.756;37.412;2022-12-16T08:13:54;99210.50;;;-3.74;70.31
69035;BME280;56091;55.756;37.412;2022-12-16T08:19:13;99220.25;;;-3.66;70.81
69035;BME280;56091;55.756;37.412;2022-12-16T08:24:33;99245.47;;;-3.47;70.24
69035;BME280;56091;55.756;37.412;2022-12-16T08:29:55;99230.44;;;-3.38;70.14
69035;BME280;56091;55.756;37.412;2022-12-16T08:35:14;99229.59;;;-3.30;70.25
69035;BME280;56091;55.756;37.412;2022-12-16T08:40:34;99241.97;;;-3.31;70.14
69035;BME280;56091;55.756;37.412;2022-12-16T08:45:54;99274.47;;;-3.39;70.91
69035;BME280;56091;55.756;37.412;2022-12-16T08:51:13;99268.19;;;-3.54;69.67
69035;BME280;56091;55.756;37.412;2022-12-16T08:56:33;99280.91;;;-3.33;70.62
69035;BME280;56091;55.756;37.412;2022-12-16T09:01:52;99287.44;;;-3.86;69.78
69035;BME280;56091;55.756;37.412;2022-12-16T09:07:15;99302.78;;;-3.74;69.01
69035;BME280;56091;55.756;37.412;2022-12-16T09:12:34;99317.41;;;-3.87;69.46
69035;BME280;56091;55.756;37.412;2022-12-16T09:17:54;99318.78;;;-3.67;69.36
69035;BME280;56091;55.756;37.412;2022-12-16T09:23:14;99314.31;;;-3.75;67.75
69035;BME280;56091;55.756;37.412;2022-12-16T09:28:33;99325.31;;;-3.87;68.08
69035;BME280;56091;55.756;37.412;2022-12-16T09:33:53;99315.78;;;-3.88;69.03
69035;BME280;56091;55.756;37.412;2022-12-16T09:39:12;99331.97;;;-3.67;69.90
69035;BME280;56091;55.756;37.412;2022-12-16T09:44:51;99355.22;;;-3.46;69.91
69035;BME280;56091;55.756;37.412;2022-12-16T09:50:22;99344.63;;;-3.70;70.08
69035;BME280;56091;55.756;37.412;2022-12-16T09:55:43;99362.44;;;-3.64;71.83
69035;BME280;56091;55.756;37.412;2022-12-16T10:01:04;99354.88;;;-3.67;71.81
69035;BME280;56091;55.756;37.412;2022-12-16T10:17:24;99393.78;;;-3.61;72.08
69035;BME280;56091;55.756;37.412;2022-12-16T10:22:55;99389.16;;;-3.67;71.92
69035;BME280;56091;55.756;37.412;2022-12-16T10:28:45;99420.97;;;-3.61;70.99
69035;BME280;56091;55.756;37.412;2022-12-16T10:34:14;99426.22;;;-3.69;70.55
69035;BME280;56091;55.756;37.412;2022-12-16T10:39:39;99440.47;;;-3.88;69.28
69035;BME280;56091;55.756;37.412;2022-12-16T10:45:02;99460.75;;;-3.88;69.75
69035;BME280;56091;55.756;37.412;2022-12-16T10:50:21;99452.31;;;-3.92;69.47
69035;BME280;56091;55.756;37.412;2022-12-16T10:55:51;99474.06;;;-3.90;68.68
69035;BME280;56091;55.756;37.412;2022-12-16T11:01:24;99419.78;;;-4.35;68.25
69035;BME280;56091;55.756;37.412;2022-12-16T11:06:45;99489.22;;;-3.92;69.10
69035;BME280;56091;55.756;37.412;2022-12-16T11:17:39;99515.72;;;-3.94;68.60
69035;BME280;56091;55.756;37.412;2022-12-16T11:23:15;99527.59;;;-4.16;67.39
69035;BME280;56091;55.756;37.412;2022-12-16T11:28:35;99526.25;;;-4.20;67.95
69035;BME280;56091;55.756;37.412;2022-12-16T11:33:57;99545.63;;;-4.29;68.13
69035;BME280;56091;55.756;37.412;2022-12-16T11:39:19;99565.97;;;-4.39;68.02
69035;BME280;56091;55.756;37.412;2022-12-16T11:44:46;99590.28;;;-4.45;68.36
69035;BME280;56091;55.756;37.412;2022-12-16T11:50:10;99574.09;;;-4.51;68.86
69035;BME280;56091;55.756;37.412;2022-12-16T11:55:32;99543.28;;;-4.86;68.93
69035;BME280;56091;55.756;37.412;2022-12-16T12:00:58;99600.63;;;-4.62;69.04
69035;BME280;56091;55.756;37.412;2022-12-16T12:11:51;99624.94;;;-4.68;68.65
69035;BME280;56091;55.756;37.412;2022-12-16T12:17:23;99621.31;;;-4.67;68.67
69035;BME280;56091;55.756;37.412;2022-12-16T12:22:46;99613.59;;;-4.68;68.37
69035;BME280;56091;55.756;37.412;2022-12-16T12:34:01;99634.47;;;-4.67;68.26
69035;BME280;56091;55.756;37.412;2022-12-16T12:39:32;99643.97;;;-4.74;68.17
69035;BME280;56091;55.756;37.412;2022-12-16T12:45:12;99640.41;;;-4.65;68.68
69035;BME280;56091;55.756;37.412;2022-12-16T12:56:30;99656.59;;;-4.78;68.89
69035;BME280;56091;55.756;37.412;2022-12-16T13:01:57;99666.25;;;-4.78;69.64
69035;BME280;56091;55.756;37.412;2022-12-16T13:07:18;99652.00;;;-4.76;69.80
69035;BME280;56091;55.756;37.412;2022-12-16T13:12:37;99671.34;;;-4.67;69.21
69035;BME280;56091;55.756;37.412;2022-12-16T13:29:05;99692.34;;;-4.57;69.01
69035;BME280;56091;55.756;37.412;2022-12-16T13:34:36;99689.28;;;-4.53;70.45
69035;BME280;56091;55.756;37.412;2022-12-16T13:40:12;99717.56;;;-4.55;69.39
69035;BME280;56091;55.756;37.412;2022-12-16T13:45:39;99729.94;;;-4.65;70.10
69035;BME280;56091;55.756;37.412;2022-12-16T13:50:58;99714.25;;;-4.57;70.34
69035;BME280;56091;55.756;37.412;2022-12-16T13:56:45;99744.41;;;-4.23;70.89
69035;BME280;56091;55.756;37.412;2022-12-16T14:02:35;99735.53;;;-4.22;69.00
69035;BME280;56091;55.756;37.412;2022-12-16T14:07:56;99750.06;;;-4.36;69.19
69035;BME280;56091;55.756;37.412;2022-12-16T14:13:25;99764.78;;;-4.43;70.17
69035;BME280;56091;55.756;37.412;2022-12-16T14:24:25;99733.88;;;-4.79;70.03
69035;BME280;56091;55.756;37.412;2022-12-16T14:29:47;99773.16;;;-4.58;70.22
69035;BME280;56091;55.756;37.412;2022-12-16T14:35:21;99754.97;;;-4.51;71.20
69035;BME280;56091;55.756;37.412;2022-12-16T14:40:49;99767.00;;;-4.48;69.92
69035;BME280;56091;55.756;37.412;2022-12-16T14:46:36;99781.94;;;-4.39;70.45
69035;BME280;56091;55.756;37.412;2022-12-16T14:51:55;99791.78;;;-4.41;70.10
69035;BME280;56091;55.756;37.412;2022-12-16T14:57:17;99796.94;;;-4.40;70.44
69035;BME280;56091;55.756;37.412;2022-12-16T15:02:40;99794.25;;;-4.30;70.97
69035;BME280;56091;55.756;37.412;2022-12-16T15:08:04;99790.00;;;-4.13;70.42
69035;BME280;56091;55.756;37.412;2022-12-16T15:13:24;99806.22;;;-4.18;70.56
69035;BME280;56091;55.756;37.412;2022-12-16T15:18:45;99811.00;;;-4.03;70.22
69035;BME280;56091;55.756;37.412;2022-12-16T15:24:09;99804.59;;;-4.19;69.68
69035;BME280;56091;55.756;37.412;2022-12-16T15:34:51;99815.72;;;-4.25;70.86
69035;BME280;56091;55.756;37.412;2022-12-16T15:40:25;99811.22;;;-4.15;70.87
69035;BME280;56091;55.756;37.412;2022-12-16T15:45:49;99822.84;;;-4.07;70.51
69035;BME280;56091;55.756;37.412;2022-12-16T15:56:44;99819.03;;;-4.23;70.89
69035;BME280;56091;55.756;37.412;2022-12-16T16:02:09;99805.94;;;-4.15;71.34
69035;BME280;56091;55.756;37.412;2022-12-16T16:07:32;99819.41;;;-4.18;71.01
69035;BME280;56091;55.756;37.412;2022-12-16T16:12:51;99816.69;;;-4.26;70.87
69035;BME280;56091;55.756;37.412;2022-12-16T16:18:11;99812.81;;;-4.32;71.00
69035;BME280;56091;55.756;37.412;2022-12-16T16:23:30;99810.13;;;-4.22;71.13
69035;BME280;56091;55.756;37.412;2022-12-16T16:28:49;99810.13;;;-4.22;70.86
69035;BME280;56091;55.756;37.412;2022-12-16T16:34:09;99806.81;;;-4.24;70.86
69035;BME280;56091;55.756;37.412;2022-12-16T16:39:31;99803.97;;;-4.40;71.20
69035;BME280;56091;55.756;37.412;2022-12-16T16:44:51;99811.81;;;-4.21;72.41
69035;BME280;56091;55.756;37.412;2022-12-16T16:50:13;99827.50;;;-4.01;70.85
69035;BME280;56091;55.756;37.412;2022-12-16T16:55:33;99825.13;;;-4.22;70.13
69035;BME280;56091;55.756;37.412;2022-12-16T17:00:52;99816.41;;;-4.33;70.53
69035;BME280;56091;55.756;37.412;2022-12-16T17:06:11;99818.91;;;-4.03;71.50
69035;BME280;56091;55.756;37.412;2022-12-16T17:11:33;99823.84;;;-3.90;70.34
69035;BME280;56091;55.756;37.412;2022-12-16T17:16:53;99832.28;;;-3.87;69.89
69035;BME280;56091;55.756;37.412;2022-12-16T17:22:12;99838.53;;;-3.88;69.31
69035;BME280;56091;55.756;37.412;2022-12-16T17:27:32;99833.78;;;-3.84;69.24
69035;BME280;56091;55.756;37.412;2022-12-16T17:32:51;99819.34;;;-3.80;69.86
69035;BME280;56091;55.756;37.412;2022-12-16T17:38:12;99818.31;;;-3.69;70.81
69035;BME280;56091;55.756;37.412;2022-12-16T17:43:31;99809.25;;;-3.67;70.83
69035;BME280;56091;55.756;37.412;2022-12-16T17:48:51;99833.00;;;-3.49;71.06
69035;BME280;56091;55.756;37.412;2022-12-16T17:54:10;99833.97;;;-3.50;70.42
69035;BME280;56091;55.756;37.412;2022-12-16T17:59:30;99849.72;;;-3.40;69.39
69035;BME280;56091;55.756;37.412;2022-12-16T18:04:49;99851.97;;;-3.45;69.81
69035;BME280;56091;55.756;37.412;2022-12-16T18:10:09;99850.41;;;-3.38;69.19
69035;BME280;56091;55.756;37.412;2022-12-16T18:15:28;99834.72;;;-3.58;69.07
69035;BME280;56091;55.756;37.412;2022-12-16T18:20:49;99854.13;;;-3.49;69.19
69035;BME280;56091;55.756;37.412;2022-12-16T18:26:15;99829.66;;;-3.69;70.04
69035;BME280;56091;55.756;37.412;2022-12-16T18:31:35;99852.19;;;-3.57;69.24
69035;BME280;56091;55.756;37.412;2022-12-16T18:36:55;99843.38;;;-3.65;69.35
69035;BME280;56091;55.756;37.412;2022-12-16T18:42:14;99854.41;;;-3.52;69.54
69035;BME280;56091;55.756;37.412;2022-12-16T18:47:33;99850.25;;;-3.55;70.56
69035;BME280;56091;55.756;37.412;2022-12-16T18:52:53;99858.09;;;-3.45;70.46
69035;BME280;56091;55.756;37.412;2022-12-16T18:58:12;99861.34;;;-3.33;70.46
69035;BME280;56091;55.756;37.412;2022-12-16T19:03:35;99859.38;;;-3.31;70.05
69035;BME280;56091;55.756;37.412;2022-12-16T19:08:54;99872.06;;;-2.72;68.82
69035;BME280;56091;55.756;37.412;2022-12-16T19:14:13;99880.75;;;-2.80;68.07
69035;BME280;56091;55.756;37.412;2022-12-16T19:19:35;99890.38;;;-2.97;68.13
69035;BME280;56091;55.756;37.412;2022-12-16T19:24:55;99906.19;;;-3.15;68.53
69035;BME280;56091;55.756;37.412;2022-12-16T19:30:17;99925.28;;;-3.21;69.14
69035;BME280;56091;55.756;37.412;2022-12-16T19:35:36;99928.59;;;-3.37;68.46
69035;BME280;56091;55.756;37.412;2022-12-16T19:40:56;99905.19;;;-3.50;70.32
69035;BME280;56091;55.756;37.412;2022-12-16T19:46:15;99946.47;;;-3.31;69.83
69035;BME280;56091;55.756;37.412;2022-12-16T19:51:35;99957.75;;;-3.39;69.10
69035;BME280;56091;55.756;37.412;2022-12-16T19:56:54;99959.28;;;-3.64;69.42
69035;BME280;56091;55.756;37.412;2022-12-16T20:02:14;99970.25;;;-3.41;70.49
69035;BME280;56091;55.756;37.412;2022-12-16T20:07:33;99963.34;;;-3.24;69.74
69035;BME280;56091;55.756;37.412;2022-12-16T20:12:52;99944.44;;;-3.19;69.68
69035;BME280;56091;55.756;37.412;2022-12-16T20:18:12;99958.41;;;-3.09;70.31
69035;BME280;56091;55.756;37.412;2022-12-16T20:23:31;99946.09;;;-3.18;70.10
69035;BME280;56091;55.756;37.412;2022-12-16T20:28:50;99961.25;;;-3.02;69.86
69035;BME280;56091;55.756;37.412;2022-12-16T20:34:10;99952.13;;;-3.08;69.82
69035;BME280;56091;55.756;37.412;2022-12-16T20:39:29;99922.50;;;-3.20;69.65
69035;BME280;56091;55.756;37.412;2022-12-16T20:44:49;99926.78;;;-3.01;69.84
69035;BME280;56091;55.756;37.412;2022-12-16T20:50:11;99914.78;;;-3.13;68.70
69035;BME280;56091;55.756;37.412;2022-12-16T20:55:31;99920.22;;;-2.97;69.31
69035;BME280;56091;55.756;37.412;2022-12-16T21:00:54;99941.94;;;-2.85;69.31
69035;BME280;56091;55.756;37.412;2022-12-16T21:06:19;99919.78;;;-2.92;68.71
69035;BME280;56091;55.756;37.412;2022-12-16T21:11:38;99925.81;;;-2.82;69.16
69035;BME280;56091;55.756;37.412;2022-12-16T21:17:00;99910.34;;;-2.95;69.65
69035;BME280;56091;55.756;37.412;2022-12-16T21:22:19;99910.66;;;-2.98;68.60
69035;BME280;56091;55.756;37.412;2022-12-16T21:27:39;99901.66;;;-2.87;69.70
69035;BME280;56091;55.756;37.412;2022-12-16T21:32:58;99903.03;;;-3.01;67.69
69035;BME280;56091;55.756;37.412;2022-12-16T21:38:20;99899.16;;;-2.88;69.85
69035;BME280;56091;55.756;37.412;2022-12-16T21:43:40;99902.84;;;-2.81;69.46
69035;BME280;56091;55.756;37.412;2022-12-16T21:48:59;99904.94;;;-3.11;69.38
69035;BME280;56091;55.756;37.412;2022-12-16T21:54:19;99909.22;;;-2.92;69.71
69035;BME280;56091;55.756;37.412;2022-12-16T21:59:38;99902.09;;;-2.73;69.50
69035;BME280;56091;55.756;37.412;2022-12-16T22:04:58;99898.44;;;-2.99;68.11
69035;BME280;56091;55.756;37.412;2022-12-16T22:10:20;99879.56;;;-3.04;68.26
69035;BME280;56091;55.756;37.412;2022-12-16T22:15:40;99890.50;;;-2.99;68.37
69035;BME280;56091;55.756;37.412;2022-12-16T22:21:02;99886.38;;;-3.19;68.28
69035;BME280;56091;55.756;37.412;2022-12-16T22:26:21;99888.75;;;-3.44;69.84
69035;BME280;56091;55.756;37.412;2022-12-16T22:31:41;99843.38;;;-3.65;71.11
69035;BME280;56091;55.756;37.412;2022-12-16T22:37:11;99887.66;;;-3.23;70.71
69035;BME280;56091;55.756;37.412;2022-12-16T22:42:31;99884.56;;;-3.37;70.89
69035;BME280;56091;55.756;37.412;2022-12-16T22:47:50;99887.09;;;-3.63;70.60
69035;BME280;56091;55.756;37.412;2022-12-16T22:53:12;99892.16;;;-3.51;71.55
69035;BME280;56091;55.756;37.412;2022-12-16T22:58:34;99874.91;;;-3.46;71.40
69035;BME280;56091;55.756;37.412;2022-12-16T23:03:56;99894.44;;;-3.39;70.63
69035;BME280;56091;55.756;37.412;2022-12-16T23:09:16;99892.47;;;-3.37;71.26
69035;BME280;56091;55.756;37.412;2022-12-16T23:14:36;99890.22;;;-3.31;71.15
69035;BME280;56091;55.756;37.412;2022-12-16T23:19:55;99890.81;;;-3.38;71.45
69035;BME280;56091;55.756;37.412;2022-12-16T23:25:15;99902.03;;;-3.54;71.34
69035;BME280;56091;55.756;37.412;2022-12-16T23:30:34;99907.22;;;-3.62;72.10
69035;BME280;56091;55.756;37.412;2022-12-16T23:35:53;99884.78;;;-3.76;72.61
69035;BME280;56091;55.756;37.412;2022-12-16T23:41:14;99893.56;;;-3.57;72.65
69035;BME280;56091;55.756;37.412;2022-12-16T23:46:34;99878.41;;;-3.73;73.23
69035;BME280;56091;55.756;37.412;2022-12-16T23:51:56;99867.25;;;-4.13;73.15
69035;BME280;56091;55.756;37.412;2022-12-16T23:57:16;99877.41;;;-3.90;72.93
